createdAt,value
2017-09-15T00:02:12.183Z,100041.27
2017-09-15T00:04:41.588Z,100046.34
2017-09-15T00:07:12.496Z,100046.20
2017-09-15T00:09:41.967Z,100048.44
2017-09-15T00:12:25.776Z,100052.55
2017-09-15T00:14:55.088Z,100053.63
2017-09-15T00:17:24.526Z,100060.80
2017-09-15T00:19:53.925Z,100068.27
2017-09-15T00:22:23.356Z,100067.62
2017-09-15T00:24:52.721Z,100062.42
2017-09-15T00:27:22.104Z,100069.14
2017-09-15T00:29:51.491Z,100070.25
2017-09-15T00:32:20.863Z,100082.62
2017-09-15T00:34:50.234Z,100080.43
2017-09-15T00:37:19.765Z,100093.77
2017-09-15T00:39:49.136Z,100101.05
2017-09-15T00:42:18.504Z,100101.14
2017-09-15T00:44:47.905Z,100108.92
2017-09-15T00:47:17.320Z,100117.27
2017-09-15T00:49:46.719Z,100116.45
2017-09-15T00:52:16.108Z,100125.05
2017-09-15T00:54:45.542Z,100123.84
2017-09-15T00:57:14.905Z,100126.89
2017-09-15T00:59:44.220Z,100125.79
2017-09-15T01:02:13.655Z,100129.55
2017-09-15T01:04:43.326Z,100129.10
2017-09-15T01:07:12.919Z,100129.48
2017-09-15T01:09:42.252Z,100129.28
2017-09-15T01:12:11.773Z,100137.84
2017-09-15T01:14:41.200Z,100142.46
2017-09-15T01:17:10.731Z,100148.43
2017-09-15T01:19:40.167Z,100151.55
2017-09-15T01:22:09.648Z,100158.98
2017-09-15T01:24:39.163Z,100159.55
2017-09-15T01:27:08.721Z,100158.86
2017-09-15T01:29:38.205Z,100156.66
2017-09-15T01:32:07.740Z,100170.69
2017-09-15T01:34:37.260Z,100175.33
2017-09-15T01:37:06.765Z,100173.25
2017-09-15T01:39:36.144Z,100179.97
2017-09-15T01:42:05.620Z,100183.22
2017-09-15T01:44:35.141Z,100189.05
2017-09-15T01:47:04.552Z,100195.95
2017-09-15T01:49:33.977Z,100196.37
2017-09-15T01:52:03.478Z,100206.24
2017-09-15T01:54:32.775Z,100201.88
2017-09-15T01:57:02.655Z,100205.60
2017-09-15T01:59:32.251Z,100208.28
2017-09-15T02:02:01.797Z,100212.47
2017-09-15T02:04:31.199Z,100213.28
2017-09-15T02:07:01.342Z,100220.94
2017-09-15T02:09:30.777Z,100219.50
2017-09-15T02:12:00.146Z,100225.41
2017-09-15T02:14:29.862Z,100224.69
2017-09-15T02:16:59.569Z,100226.48
2017-09-15T02:19:29.069Z,100234.17
2017-09-15T02:21:58.468Z,100236.00
2017-09-15T02:24:27.967Z,100235.34
2017-09-15T02:26:57.466Z,100241.97
2017-09-15T02:29:27.051Z,100251.25
2017-09-15T02:31:56.876Z,100251.52
2017-09-15T02:34:26.873Z,100256.30
2017-09-15T02:36:56.781Z,100257.37
2017-09-15T02:39:26.210Z,100262.80
2017-09-15T02:41:55.658Z,100260.91
2017-09-15T02:44:25.395Z,100271.16
2017-09-15T02:46:54.924Z,100265.66
2017-09-15T02:49:24.276Z,100278.30
2017-09-15T02:51:53.763Z,100282.84
2017-09-15T02:54:23.153Z,100285.80
2017-09-15T02:56:52.583Z,100295.70
2017-09-15T02:59:22.019Z,100294.88
2017-09-15T03:01:51.587Z,100299.15
2017-09-15T03:04:21.031Z,100299.96
2017-09-15T03:06:50.441Z,100301.56
2017-09-15T03:09:19.752Z,100309.62
2017-09-15T03:11:49.340Z,100307.83
2017-09-15T03:14:19.171Z,100312.47
2017-09-15T03:16:48.585Z,100325.08
2017-09-15T03:19:18.004Z,100328.09
2017-09-15T03:21:47.515Z,100334.55
2017-09-15T03:24:17.023Z,100337.45
2017-09-15T03:26:46.449Z,100342.60
2017-09-15T03:29:15.979Z,100336.74
2017-09-15T03:31:46.187Z,100343.23
2017-09-15T03:34:15.694Z,100350.09
2017-09-15T03:36:45.110Z,100349.82
2017-09-15T03:39:14.452Z,100348.28
2017-09-15T03:41:48.643Z,100348.31
2017-09-15T03:44:18.962Z,100352.42
2017-09-15T03:46:49.021Z,100354.45
2017-09-15T03:49:18.499Z,100344.88
2017-09-15T03:51:47.923Z,100345.09
2017-09-15T03:54:17.272Z,100350.09
2017-09-15T03:56:46.642Z,100353.67
2017-09-15T03:59:15.988Z,100357.40
2017-09-15T04:04:42.052Z,100368.20
2017-09-15T04:07:11.447Z,100374.57
2017-09-15T04:09:40.721Z,100367.23
2017-09-15T04:12:10.156Z,100380.50
2017-09-15T04:14:39.575Z,100386.02
2017-09-15T04:17:09.221Z,100387.89
2017-09-15T04:19:38.561Z,100398.34
2017-09-15T04:22:07.964Z,100404.66
2017-09-15T04:24:37.308Z,100412.11
2017-09-15T04:27:06.717Z,100409.69
2017-09-15T04:29:36.137Z,100408.95
2017-09-15T04:32:05.761Z,100413.47
2017-09-15T04:34:35.252Z,100418.94
2017-09-15T04:37:06.527Z,100416.67
2017-09-15T04:39:36.492Z,100421.15
2017-09-15T04:42:05.900Z,100428.39
2017-09-15T04:44:35.263Z,100432.94
2017-09-15T04:47:04.695Z,100432.20
2017-09-15T04:49:34.005Z,100442.42
2017-09-15T04:52:03.841Z,100449.58
2017-09-15T04:54:33.892Z,100454.09
2017-09-15T04:57:03.277Z,100465.77
2017-09-15T04:59:32.616Z,100465.36
2017-09-15T05:02:03.672Z,100470.63
2017-09-15T05:04:33.305Z,100472.52
2017-09-15T05:07:02.794Z,100473.72
2017-09-15T05:09:32.122Z,100473.92
2017-09-15T05:12:03.231Z,100475.25
2017-09-15T05:14:33.085Z,100479.22
2017-09-15T05:17:02.660Z,100487.66
2017-09-15T05:19:32.412Z,100489.48
2017-09-15T05:22:13.229Z,100498.54
2017-09-15T05:24:45.707Z,100501.14
2017-09-15T05:27:16.211Z,100499.86
2017-09-15T05:29:45.555Z,100498.11
2017-09-15T05:32:14.920Z,100508.88
2017-09-15T05:34:44.241Z,100510.41
2017-09-15T05:37:13.989Z,100509.67
2017-09-15T05:39:43.319Z,100520.30
2017-09-15T05:42:12.752Z,100522.88
2017-09-15T05:44:42.104Z,100531.77
2017-09-15T05:47:12.207Z,100534.47
2017-09-15T05:49:42.254Z,100541.69
2017-09-15T05:52:11.781Z,100541.99
2017-09-15T05:54:41.210Z,100548.01
2017-09-15T05:57:10.869Z,100548.39
2017-09-15T05:59:40.166Z,100552.04
2017-09-15T06:02:09.520Z,100559.41
2017-09-15T06:04:38.796Z,100561.06
2017-09-15T06:07:08.105Z,100567.62
2017-09-15T06:09:38.404Z,100570.49
2017-09-15T06:12:08.181Z,100579.75
2017-09-15T06:14:45.282Z,100584.60
2017-09-15T06:17:17.860Z,100588.68
2017-09-15T06:19:48.065Z,100588.55
2017-09-15T06:22:17.668Z,100595.75
2017-09-15T06:24:47.093Z,100602.33
2017-09-15T06:27:16.621Z,100604.64
2017-09-15T06:29:46.328Z,100608.15
2017-09-15T06:32:16.043Z,100610.13
2017-09-15T06:34:46.409Z,100616.55
2017-09-15T06:37:15.818Z,100617.98
2017-09-15T06:39:45.164Z,100625.33
2017-09-15T06:42:14.633Z,100629.31
2017-09-15T06:44:44.439Z,100630.42
2017-09-15T06:47:14.060Z,100627.03
2017-09-15T06:49:43.459Z,100629.42
2017-09-15T06:52:13.275Z,100630.78
2017-09-15T06:54:42.580Z,100630.56
2017-09-15T06:57:12.028Z,100634.16
2017-09-15T06:59:41.539Z,100629.05
2017-09-15T07:02:11.246Z,100629.87
2017-09-15T07:04:40.564Z,100643.23
2017-09-15T07:07:09.945Z,100640.59
2017-09-15T07:09:40.251Z,100644.18
2017-09-15T07:12:09.739Z,100651.91
2017-09-15T07:14:50.789Z,100648.53
2017-09-15T07:17:32.309Z,100660.64
2017-09-15T07:20:03.796Z,100664.93
2017-09-15T07:22:39.394Z,100668.20
2017-09-15T07:25:21.560Z,100672.45
2017-09-15T07:28:01.799Z,100683.45
2017-09-15T07:30:31.877Z,100688.82
2017-09-15T07:33:03.477Z,100691.83
2017-09-15T07:35:34.412Z,100697.45
2017-09-15T07:38:04.105Z,100703.80
2017-09-15T07:40:33.742Z,100704.93
2017-09-15T07:43:08.050Z,100707.47
2017-09-15T07:45:37.713Z,100715.86
2017-09-15T07:48:07.188Z,100714.13
2017-09-15T07:50:36.633Z,100717.09
2017-09-15T07:53:06.180Z,100721.34
2017-09-15T07:55:35.605Z,100725.06
2017-09-15T07:58:04.984Z,100730.55
2017-09-15T08:00:34.722Z,100725.37
2017-09-15T08:03:04.935Z,100730.09
2017-09-15T08:05:34.284Z,100735.20
2017-09-15T08:08:03.705Z,100735.71
2017-09-15T08:10:33.221Z,100733.36
2017-09-15T08:13:02.965Z,100729.97
2017-09-15T08:15:38.969Z,100736.97
2017-09-15T08:18:09.351Z,100741.45
2017-09-15T08:20:38.841Z,100741.89
2017-09-15T08:23:13.175Z,100743.71
2017-09-15T08:25:42.648Z,100754.93
2017-09-15T08:28:17.020Z,100748.11
2017-09-15T08:30:50.821Z,100737.70
2017-09-15T08:33:20.549Z,100753.33
2017-09-15T08:35:51.208Z,100748.67
2017-09-15T08:38:20.645Z,100763.91
2017-09-15T08:40:50.088Z,100757.58
2017-09-15T08:43:20.502Z,100746.17
2017-09-15T08:45:52.565Z,100748.94
2017-09-15T08:48:21.972Z,100754.30
2017-09-15T08:50:51.819Z,100763.67
2017-09-15T08:53:23.009Z,100760.84
2017-09-15T08:55:52.917Z,100761.31
2017-09-15T08:58:22.375Z,100766.44
2017-09-15T09:00:51.881Z,100763.78
2017-09-15T09:03:21.199Z,100762.21
2017-09-15T09:05:50.611Z,100760.52
2017-09-15T09:08:19.947Z,100763.34
2017-09-15T09:10:49.392Z,100761.55
2017-09-15T09:13:19.433Z,100762.41
2017-09-15T09:15:48.866Z,100764.22
2017-09-15T09:18:18.251Z,100751.12
2017-09-15T09:20:47.642Z,100759.68
2017-09-15T09:23:17.017Z,100762.93
2017-09-15T09:25:46.441Z,100763.04
2017-09-15T09:28:15.771Z,100757.39
2017-09-15T09:30:45.153Z,100761.14
2017-09-15T09:33:14.542Z,100767.33
2017-09-15T09:35:50.500Z,100776.30
2017-09-15T09:38:19.819Z,100769.97
2017-09-15T09:40:49.227Z,100759.31
2017-09-15T09:43:18.693Z,100770.00
2017-09-15T09:45:48.039Z,100768.42
2017-09-15T09:48:17.404Z,100777.42
2017-09-15T09:50:46.821Z,100773.88
2017-09-15T09:53:16.139Z,100773.16
2017-09-15T09:55:45.532Z,100761.94
2017-09-15T09:58:14.940Z,100762.36
2017-09-15T10:00:44.556Z,100754.19
2017-09-15T10:03:13.937Z,100752.37
2017-09-15T10:05:43.318Z,100752.91
2017-09-15T10:08:12.884Z,100759.37
2017-09-15T10:10:42.684Z,100751.69
2017-09-15T10:13:12.194Z,100751.59
2017-09-15T10:15:41.692Z,100763.88
2017-09-15T10:18:11.100Z,100760.02
2017-09-15T10:20:40.673Z,100755.20
2017-09-15T10:23:10.043Z,100765.62
2017-09-15T10:25:39.549Z,100761.88
2017-09-15T10:28:08.921Z,100761.66
2017-09-15T10:30:38.302Z,100764.12
2017-09-15T10:33:07.786Z,100766.11
2017-09-15T10:35:37.115Z,100762.63
2017-09-15T10:38:06.556Z,100757.11
2017-09-15T10:40:35.929Z,100760.59
2017-09-15T10:43:05.261Z,100760.04
2017-09-15T10:45:34.844Z,100765.14
2017-09-15T10:48:04.149Z,100765.71
2017-09-15T10:50:33.508Z,100766.00
2017-09-15T10:53:03.453Z,100766.39
2017-09-15T10:55:32.911Z,100769.92
2017-09-15T10:58:06.359Z,100766.14
2017-09-15T11:00:35.725Z,100768.50
2017-09-15T11:03:07.017Z,100770.78
2017-09-15T11:05:37.501Z,100766.60
2017-09-15T11:08:33.296Z,100718.83
2017-09-15T11:11:04.727Z,100765.89
2017-09-15T11:13:34.279Z,100767.09
2017-09-15T11:16:03.749Z,100767.67
2017-09-15T11:18:33.138Z,100763.23
2017-09-15T11:21:02.564Z,100767.45
2017-09-15T11:23:38.524Z,100770.80
2017-09-15T11:26:07.910Z,100766.27
2017-09-15T11:28:37.209Z,100770.74
2017-09-15T11:31:06.540Z,100773.03
2017-09-15T11:33:35.820Z,100767.70
2017-09-15T11:36:05.178Z,100765.33
2017-09-15T11:38:34.524Z,100762.39
2017-09-15T11:41:04.256Z,100760.53
2017-09-15T11:43:33.548Z,100761.30
2017-09-15T11:46:02.834Z,100752.45
2017-09-15T11:48:32.164Z,100761.05
2017-09-15T11:51:01.535Z,100755.33
2017-09-15T11:53:30.844Z,100761.12
2017-09-15T11:56:00.209Z,100756.49
2017-09-15T11:58:29.637Z,100752.47
2017-09-15T12:00:59.163Z,100758.53
2017-09-15T12:03:28.539Z,100750.35
2017-09-15T12:05:57.869Z,100748.86
2017-09-15T12:08:27.125Z,100750.44
2017-09-15T12:10:56.489Z,100750.77
2017-09-15T12:14:03.772Z,100752.36
2017-09-15T12:16:33.948Z,100745.61
2017-09-15T12:19:03.270Z,100743.95
2017-09-15T12:21:35.875Z,100734.92
2017-09-15T12:24:05.486Z,100728.48
2017-09-15T12:26:48.388Z,100738.50
2017-09-15T12:29:17.700Z,100734.92
2017-09-15T12:31:51.549Z,100722.77
2017-09-15T12:34:23.069Z,100726.52
2017-09-15T12:36:57.706Z,100723.75
2017-09-15T12:39:27.136Z,100727.08
2017-09-15T12:41:56.540Z,100726.70
2017-09-15T12:44:26.008Z,100723.96
2017-09-15T12:46:55.477Z,100723.72
2017-09-15T12:49:24.828Z,100723.55
2017-09-15T12:51:54.229Z,100719.81
2017-09-15T12:54:23.708Z,100720.19
2017-09-15T12:56:53.270Z,100716.00
2017-09-15T12:59:23.342Z,100719.86
2017-09-15T13:01:53.686Z,100715.08
2017-09-15T13:04:23.542Z,100709.84
2017-09-15T13:06:53.157Z,100707.59
2017-09-15T13:09:23.808Z,100706.13
2017-09-15T13:12:06.141Z,100705.67
2017-09-15T13:14:42.175Z,100704.98
2017-09-15T13:17:11.747Z,100702.20
2017-09-15T13:19:41.067Z,100707.42
2017-09-15T13:22:10.451Z,100704.44
2017-09-15T13:24:39.796Z,100700.70
2017-09-15T13:27:09.191Z,100703.23
2017-09-15T13:29:38.534Z,100699.33
2017-09-15T13:32:07.864Z,100703.00
2017-09-15T13:34:37.257Z,100699.34
2017-09-15T13:37:06.656Z,100702.84
2017-09-15T13:39:35.997Z,100694.91
2017-09-15T13:42:05.383Z,100701.41
2017-09-15T13:44:34.782Z,100700.80
2017-09-15T13:47:04.115Z,100700.31
2017-09-15T13:49:33.399Z,100703.00
2017-09-15T13:52:02.725Z,100699.41
2017-09-15T13:54:31.999Z,100699.91
2017-09-15T13:57:01.420Z,100695.61
2017-09-15T13:59:30.769Z,100700.91
2017-09-15T14:02:00.143Z,100699.92
2017-09-15T14:04:29.555Z,100700.01
2017-09-15T14:06:58.926Z,100699.27
2017-09-15T14:09:28.262Z,100709.90
2017-09-15T14:11:59.560Z,100712.72
2017-09-15T14:14:29.321Z,100723.49
2017-09-15T14:16:58.810Z,100724.84
2017-09-15T14:19:28.290Z,100727.80
2017-09-15T14:21:57.935Z,100742.75
2017-09-15T14:24:27.521Z,100733.88
2017-09-15T14:26:57.540Z,100737.45
2017-09-15T14:29:27.030Z,100744.72
2017-09-15T14:31:56.657Z,100742.12
2017-09-15T14:34:26.295Z,100736.03
2017-09-15T14:36:55.942Z,100733.58
2017-09-15T14:39:25.560Z,100727.17
2017-09-15T14:41:55.060Z,100726.12
2017-09-15T14:44:24.422Z,100716.08
2017-09-15T14:46:53.800Z,100712.94
2017-09-15T14:49:23.256Z,100705.05
2017-09-15T14:51:52.677Z,100701.78
2017-09-15T14:54:22.675Z,100697.01
2017-09-15T14:56:52.193Z,100693.84
2017-09-15T14:59:21.722Z,100690.32
2017-09-15T15:01:51.184Z,100686.01
2017-09-15T15:04:20.572Z,100684.81
2017-09-15T15:06:50.088Z,100681.47
2017-09-15T15:09:19.520Z,100675.92
2017-09-15T15:11:49.148Z,100673.33
2017-09-15T15:14:18.598Z,100668.85
2017-09-15T15:16:49.508Z,100666.99
2017-09-15T15:19:19.012Z,100670.48
2017-09-15T15:21:58.236Z,100666.42
2017-09-15T15:24:34.653Z,100665.38
2017-09-15T15:27:04.023Z,100655.69
2017-09-15T15:29:33.459Z,100661.53
2017-09-15T15:32:04.039Z,100654.88
2017-09-15T15:34:33.478Z,100657.56
2017-09-15T15:37:02.835Z,100655.62
2017-09-15T15:39:36.508Z,100657.64
2017-09-15T15:42:05.923Z,100659.19
2017-09-15T15:44:35.316Z,100658.28
2017-09-15T15:47:04.844Z,100659.26
2017-09-15T15:49:34.168Z,100662.50
2017-09-15T15:52:03.622Z,100662.84
2017-09-15T15:54:33.911Z,100635.78
2017-09-15T15:57:05.108Z,100649.66
2017-09-15T15:59:34.604Z,100650.08
2017-09-15T16:02:04.017Z,100647.06
2017-09-15T16:04:33.421Z,100649.77
2017-09-15T16:07:04.575Z,100646.60
2017-09-15T16:09:33.959Z,100651.31
2017-09-15T16:12:03.431Z,100646.35
2017-09-15T16:14:32.872Z,100647.08
2017-09-15T16:17:02.352Z,100650.42
2017-09-15T16:19:56.588Z,100656.51
2017-09-15T16:22:32.298Z,100654.88
2017-09-15T16:25:01.724Z,100657.48
2017-09-15T16:27:31.245Z,100655.13
2017-09-15T16:30:00.814Z,100655.05
2017-09-15T16:32:30.418Z,100650.59
2017-09-15T16:35:08.380Z,100656.11
2017-09-15T16:38:01.110Z,100654.73
2017-09-15T16:43:19.541Z,100659.00
2017-09-15T16:45:54.577Z,100652.77
2017-09-15T16:48:29.511Z,100658.69
2017-09-15T16:51:01.910Z,100656.19
2017-09-15T16:53:39.717Z,100663.97
2017-09-15T16:56:15.465Z,100656.50
2017-09-15T16:58:51.009Z,100656.97
2017-09-15T17:01:23.031Z,100665.19
2017-09-15T17:03:58.705Z,100662.02
2017-09-15T17:06:28.384Z,100661.67
2017-09-15T17:08:57.852Z,100666.84
2017-09-15T17:11:27.386Z,100658.30
2017-09-15T17:13:57.003Z,100663.50
2017-09-15T17:16:41.472Z,100662.19
2017-09-15T17:19:16.616Z,100604.67
2017-09-15T17:21:46.409Z,100667.08
2017-09-15T17:24:21.277Z,100663.31
2017-09-15T17:26:54.981Z,100670.20
2017-09-15T17:29:25.383Z,100669.64
2017-09-15T17:31:55.125Z,100669.78
2017-09-15T17:34:24.981Z,100673.66
2017-09-15T17:36:55.048Z,100674.73
2017-09-15T17:39:27.670Z,100668.64
2017-09-15T17:41:57.378Z,100678.77
2017-09-15T17:44:37.018Z,100683.45
2017-09-15T17:47:09.309Z,100678.73
2017-09-15T17:49:42.045Z,100684.55
2017-09-15T17:52:14.001Z,100685.38
2017-09-15T17:54:44.374Z,100683.83
2017-09-15T17:59:58.037Z,100686.94
2017-09-15T18:02:31.365Z,100696.98
2017-09-15T18:05:00.819Z,100695.91
2017-09-15T18:07:30.387Z,100696.97
2017-09-15T18:09:59.700Z,100696.05
2017-09-15T18:12:34.768Z,100696.95
2017-09-15T18:15:18.774Z,100692.15
2017-09-15T18:20:33.259Z,100692.41
2017-09-15T18:23:02.557Z,100697.66
2017-09-15T18:25:31.894Z,100700.42
2017-09-15T18:28:01.183Z,100700.73
2017-09-15T18:30:31.300Z,100702.52
2017-09-15T18:33:01.465Z,100707.30
2017-09-15T18:35:31.049Z,100708.09
2017-09-15T18:38:00.404Z,100708.55
2017-09-15T18:40:29.798Z,100707.02
2017-09-15T18:42:59.319Z,100707.41
2017-09-15T18:45:28.777Z,100709.34
2017-09-15T18:47:58.236Z,100710.56
2017-09-15T18:50:27.712Z,100702.67
2017-09-15T18:52:57.204Z,100706.81
2017-09-15T18:55:27.786Z,100701.14
2017-09-15T18:57:57.236Z,100707.81
2017-09-15T19:00:27.120Z,100705.56
2017-09-15T19:02:56.539Z,100703.44
2017-09-15T19:05:26.021Z,100706.58
2017-09-15T19:07:55.316Z,100708.55
2017-09-15T19:10:24.907Z,100703.09
2017-09-15T19:12:54.228Z,100706.04
2017-09-15T19:15:23.655Z,100701.87
2017-09-15T19:17:52.941Z,100702.56
2017-09-15T19:20:22.255Z,100699.64
2017-09-15T19:22:51.547Z,100692.88
2017-09-15T19:25:20.895Z,100695.23
2017-09-15T19:27:50.401Z,100693.45
2017-09-15T19:30:19.871Z,100689.22
2017-09-15T19:32:49.706Z,100687.25
2017-09-15T19:35:19.621Z,100693.91
2017-09-15T19:37:49.695Z,100690.98
2017-09-15T19:41:10.802Z,100689.16
2017-09-15T19:43:51.198Z,100689.31
2017-09-15T19:51:03.070Z,100695.14
2017-09-15T19:53:34.153Z,100704.06
2017-09-15T19:56:04.669Z,100695.63
2017-09-15T19:58:35.351Z,100694.02
2017-09-15T20:01:05.594Z,100698.81
2017-09-15T20:03:35.386Z,100695.58
2017-09-15T20:06:09.292Z,100699.84
2017-09-15T20:08:39.928Z,100695.33
2017-09-15T20:11:10.747Z,100697.92
2017-09-15T20:13:45.260Z,100700.11
2017-09-15T20:16:48.128Z,100694.65
2017-09-15T20:19:18.267Z,100695.30
2017-09-15T20:21:47.808Z,100691.13
2017-09-15T20:24:25.282Z,100655.33
2017-09-15T20:26:58.157Z,100687.37
2017-09-15T20:29:27.967Z,100689.92
2017-09-15T20:31:57.504Z,100693.52
2017-09-15T20:34:36.402Z,100698.00
2017-09-15T20:37:07.052Z,100697.22
2017-09-15T20:39:36.954Z,100699.20
2017-09-15T20:47:28.956Z,100700.95
2017-09-15T20:49:58.644Z,100704.45
2017-09-15T20:52:28.819Z,100702.50
2017-09-15T20:54:58.840Z,100704.05
2017-09-15T20:57:29.941Z,100707.14
2017-09-15T21:00:03.328Z,100708.95
2017-09-15T21:02:32.940Z,100703.66
2017-09-15T21:05:02.429Z,100696.36
2017-09-15T21:07:32.928Z,100710.80
2017-09-15T21:10:06.080Z,100707.41
2017-09-15T21:12:35.702Z,100708.22
2017-09-15T21:15:05.092Z,100710.88
2017-09-15T21:17:34.550Z,100714.94
2017-09-15T21:20:04.033Z,100720.99
2017-09-15T21:22:36.177Z,100724.15
2017-09-15T21:25:06.759Z,100726.75
2017-09-15T21:27:36.383Z,100727.59
2017-09-15T21:30:05.972Z,100722.50
2017-09-15T21:32:35.496Z,100722.72
2017-09-15T21:35:05.248Z,100718.14
2017-09-15T21:37:38.133Z,100722.60
2017-09-15T21:40:07.775Z,100711.16
2017-09-15T21:42:37.153Z,100714.84
2017-09-15T21:45:07.402Z,100710.34
2017-09-15T21:47:37.190Z,100714.78
2017-09-15T21:50:07.417Z,100712.18
2017-09-15T21:52:37.141Z,100705.88
2017-09-15T21:55:06.505Z,100705.11
2017-09-15T21:57:35.948Z,100697.83
2017-09-15T22:00:05.352Z,100691.81
2017-09-15T22:02:34.740Z,100686.20
2017-09-15T22:05:04.186Z,100685.38
2017-09-15T22:07:33.564Z,100679.69
2017-09-15T22:10:03.103Z,100679.73
2017-09-15T22:12:33.283Z,100677.20
2017-09-15T22:15:02.701Z,100680.98
2017-09-15T22:17:32.163Z,100679.30
2017-09-15T22:20:02.236Z,100670.58
2017-09-15T22:22:31.800Z,100671.14
2017-09-15T22:25:01.087Z,100671.05
2017-09-15T22:27:30.441Z,100667.02
2017-09-15T22:29:59.824Z,100669.06
2017-09-15T22:32:29.142Z,100664.91
2017-09-15T22:34:58.475Z,100670.39
2017-09-15T22:37:28.162Z,100667.29
2017-09-15T22:39:57.638Z,100666.73
2017-09-15T22:42:27.241Z,100670.64
2017-09-15T22:44:56.704Z,100672.44
2017-09-15T22:47:26.085Z,100675.84
2017-09-15T22:49:55.463Z,100685.13
2017-09-15T22:52:27.901Z,100681.70
2017-09-15T22:54:57.298Z,100688.75
2017-09-15T22:57:26.639Z,100689.72
2017-09-15T22:59:55.972Z,100686.42
2017-09-15T23:02:25.280Z,100690.40
2017-09-15T23:04:54.836Z,100683.69
2017-09-15T23:07:24.213Z,100684.65
2017-09-15T23:09:53.644Z,100689.58
2017-09-15T23:12:23.026Z,100689.50
2017-09-15T23:14:52.616Z,100688.05
2017-09-15T23:17:22.024Z,100694.23
2017-09-15T23:19:51.350Z,100693.86
2017-09-15T23:22:20.787Z,100694.84
2017-09-15T23:24:50.950Z,100692.83
2017-09-15T23:27:20.582Z,100692.65
2017-09-15T23:29:49.881Z,100695.58
2017-09-15T23:32:19.301Z,100701.17
2017-09-15T23:34:48.671Z,100701.72
2017-09-15T23:37:18.154Z,100700.22
2017-09-15T23:39:47.781Z,100702.28
2017-09-15T23:42:17.243Z,100708.59
2017-09-15T23:44:46.593Z,100706.73
2017-09-15T23:47:15.951Z,100704.31
2017-09-15T23:49:45.335Z,100707.46
2017-09-15T23:52:14.708Z,100694.92
2017-09-15T23:54:44.131Z,100706.02
2017-09-15T23:57:13.633Z,100707.30
2017-09-15T23:59:42.988Z,100704.52
